sensor_id;sensor_type;location;lat;lon;timestamp;pressure;altitude;pressure_sealevel;temperature;humidity
46506;BME280;32220;49.808;9.968;2023-02-28T00:01:49;99894.72;;;-0.72;70.46
46506;BME280;32220;49.808;9.968;2023-02-28T00:04:16;99834.06;;;-1.11;70.07
46506;BME280;32220;49.808;9.968;2023-02-28T00:06:44;99905.13;;;-0.72;70.08
46506;BME280;32220;49.808;9.968;2023-02-28T00:09:12;99905.13;;;-0.75;70.21
46506;BME280;32220;49.808;9.968;2023-02-28T00:11:41;99895.59;;;-0.76;70.22
46506;BME280;32220;49.808;9.968;2023-02-28T00:14:09;99905.13;;;-0.78;70.47
46506;BME280;32220;49.808;9.968;2023-02-28T00:16:37;99843.59;;;-1.20;70.21
46506;BME280;32220;49.808;9.968;2023-02-28T00:19:04;99896.44;;;-0.83;70.40
46506;BME280;32220;49.808;9.968;2023-02-28T00:21:32;99900.81;;;-0.87;70.54
46506;BME280;32220;49.808;9.968;2023-02-28T00:24:00;99900.81;;;-0.91;71.09
46506;BME280;32220;49.808;9.968;2023-02-28T00:26:27;99849.66;;;-1.20;71.04
46506;BME280;32220;49.808;9.968;2023-02-28T00:28:57;99902.53;;;-0.93;70.36
46506;BME280;32220;49.808;9.968;2023-02-28T00:31:25;99906.84;;;-0.95;70.37
46506;BME280;32220;49.808;9.968;2023-02-28T00:33:52;99902.53;;;-1.02;71.03
46506;BME280;32220;49.808;9.968;2023-02-28T00:36:20;99893.00;;;-1.03;71.32
46506;BME280;32220;49.808;9.968;2023-02-28T00:38:48;99899.94;;;-1.04;71.58
46506;BME280;32220;49.808;9.968;2023-02-28T00:41:16;99888.66;;;-1.08;71.47
46506;BME280;32220;49.808;9.968;2023-02-28T00:43:44;99904.25;;;-1.08;71.54
46506;BME280;32220;49.808;9.968;2023-02-28T00:46:13;99892.97;;;-1.08;72.44
46506;BME280;32220;49.808;9.968;2023-02-28T00:48:42;99898.16;;;-1.10;72.42
46506;BME280;32220;49.808;9.968;2023-02-28T00:51:09;99892.97;;;-1.10;72.53
46506;BME280;32220;49.808;9.968;2023-02-28T00:53:37;99892.13;;;-1.13;73.19
46506;BME280;32220;49.808;9.968;2023-02-28T00:56:05;99879.97;;;-1.22;72.85
46506;BME280;32220;49.808;9.968;2023-02-28T00:58:33;99888.63;;;-1.09;72.95
46506;BME280;32220;49.808;9.968;2023-02-28T01:01:01;99890.38;;;-1.14;73.42
46506;BME280;32220;49.808;9.968;2023-02-28T01:03:30;99883.47;;;-1.15;73.50
46506;BME280;32220;49.808;9.968;2023-02-28T01:05:58;99893.84;;;-1.18;73.96
46506;BME280;32220;49.808;9.968;2023-02-28T01:08:26;99888.66;;;-1.17;73.59
46506;BME280;32220;49.808;9.968;2023-02-28T01:10:53;99896.44;;;-1.18;73.88
46506;BME280;32220;49.808;9.968;2023-02-28T01:13:22;99891.25;;;-1.20;73.46
46506;BME280;32220;49.808;9.968;2023-02-28T01:15:53;99893.81;;;-1.23;74.02
46506;BME280;32220;49.808;9.968;2023-02-28T01:18:22;99864.34;;;-1.43;74.93
46506;BME280;32220;49.808;9.968;2023-02-28T01:20:52;99889.50;;;-1.27;73.94
46506;BME280;32220;49.808;9.968;2023-02-28T01:23:20;99892.09;;;-1.30;74.36
46506;BME280;32220;49.808;9.968;2023-02-28T01:25:49;99886.03;;;-1.32;74.71
46506;BME280;32220;49.808;9.968;2023-02-28T01:28:17;99865.22;;;-1.44;74.57
46506;BME280;32220;49.808;9.968;2023-02-28T01:30:47;99819.25;;;-1.72;74.49
46506;BME280;32220;49.808;9.968;2023-02-28T01:33:15;99873.03;;;-1.41;74.35
46506;BME280;32220;49.808;9.968;2023-02-28T01:35:43;99869.56;;;-1.35;74.56
46506;BME280;32220;49.808;9.968;2023-02-28T01:38:12;99830.53;;;-1.69;74.33
46506;BME280;32220;49.808;9.968;2023-02-28T01:40:40;99848.75;;;-1.55;74.69
46506;BME280;32220;49.808;9.968;2023-02-28T01:43:20;99877.38;;;-1.37;74.23
46506;BME280;32220;49.808;9.968;2023-02-28T01:45:48;99878.22;;;-1.39;74.17
46506;BME280;32220;49.808;9.968;2023-02-28T01:48:16;99880.84;;;-1.38;74.14
46506;BME280;32220;49.808;9.968;2023-02-28T01:50:46;99881.69;;;-1.39;74.33
46506;BME280;32220;49.808;9.968;2023-02-28T01:53:18;99870.44;;;-1.41;74.62
46506;BME280;32220;49.808;9.968;2023-02-28T01:55:48;99868.69;;;-1.39;74.02
46506;BME280;32220;49.808;9.968;2023-02-28T01:58:20;99866.09;;;-1.50;74.68
46506;BME280;32220;49.808;9.968;2023-02-28T02:00:48;99868.69;;;-1.39;74.13
46506;BME280;32220;49.808;9.968;2023-02-28T02:03:18;99869.56;;;-1.37;74.13
46506;BME280;32220;49.808;9.968;2023-02-28T02:05:47;99834.00;;;-1.67;74.32
46506;BME280;32220;49.808;9.968;2023-02-28T02:08:20;99872.16;;;-1.34;73.86
46506;BME280;32220;49.808;9.968;2023-02-28T02:10:50;99861.75;;;-1.34;73.90
46506;BME280;32220;49.808;9.968;2023-02-28T02:13:29;99865.22;;;-1.33;74.20
46506;BME280;32220;49.808;9.968;2023-02-28T02:16:06;99860.91;;;-1.39;74.18
46506;BME280;32220;49.808;9.968;2023-02-28T02:18:40;99855.72;;;-1.37;73.87
46506;BME280;32220;49.808;9.968;2023-02-28T02:21:32;99865.22;;;-1.41;74.21
46506;BME280;32220;49.808;9.968;2023-02-28T02:27:26;99854.81;;;-1.44;73.84
46506;BME280;32220;49.808;9.968;2023-02-28T02:30:22;99854.81;;;-1.44;73.43
46506;BME280;32220;49.808;9.968;2023-02-28T02:33:25;99858.28;;;-1.48;73.83
46506;BME280;32220;49.808;9.968;2023-02-28T02:36:01;99853.97;;;-1.51;73.63
46506;BME280;32220;49.808;9.968;2023-02-28T02:38:37;99848.75;;;-1.55;73.53
46506;BME280;32220;49.808;9.968;2023-02-28T02:41:14;99861.75;;;-1.52;73.35
46506;BME280;32220;49.808;9.968;2023-02-28T02:43:46;99858.28;;;-1.54;73.52
46506;BME280;32220;49.808;9.968;2023-02-28T02:46:19;99867.78;;;-1.56;73.29
46506;BME280;32220;49.808;9.968;2023-02-28T02:48:48;99859.97;;;-1.59;73.50
46506;BME280;32220;49.808;9.968;2023-02-28T02:51:21;99858.25;;;-1.60;73.52
46506;BME280;32220;49.808;9.968;2023-02-28T02:53:53;99854.81;;;-1.62;73.24
46506;BME280;32220;49.808;9.968;2023-02-28T02:56:27;99861.72;;;-1.64;73.40
46506;BME280;32220;49.808;9.968;2023-02-28T02:59:01;99840.03;;;-1.78;73.51
46506;BME280;32220;49.808;9.968;2023-02-28T03:01:31;99863.44;;;-1.69;73.94
46506;BME280;32220;49.808;9.968;2023-02-28T03:04:02;99838.28;;;-1.83;74.13
46506;BME280;32220;49.808;9.968;2023-02-28T03:06:33;99866.00;;;-1.71;73.88
46506;BME280;32220;49.808;9.968;2023-02-28T03:09:02;99849.56;;;-1.77;74.04
46506;BME280;32220;49.808;9.968;2023-02-28T03:11:31;99854.75;;;-1.77;74.30
46506;BME280;32220;49.808;9.968;2023-02-28T03:14:21;99853.03;;;-1.78;74.55
46506;BME280;32220;49.808;9.968;2023-02-28T03:17:05;99858.22;;;-1.78;74.68
46506;BME280;32220;49.808;9.968;2023-02-28T03:19:47;99857.34;;;-1.79;74.25
46506;BME280;32220;49.808;9.968;2023-02-28T03:22:55;99857.34;;;-1.81;74.44
46506;BME280;32220;49.808;9.968;2023-02-28T03:25:32;99865.13;;;-1.82;74.27
46506;BME280;32220;49.808;9.968;2023-02-28T03:28:09;99868.56;;;-1.85;74.64
46506;BME280;32220;49.808;9.968;2023-02-28T03:30:45;99864.25;;;-1.84;74.61
46506;BME280;32220;49.808;9.968;2023-02-28T03:33:22;99870.31;;;-1.87;74.76
46506;BME280;32220;49.808;9.968;2023-02-28T03:35:54;99866.84;;;-1.89;74.61
46506;BME280;32220;49.808;9.968;2023-02-28T03:38:28;99861.66;;;-1.87;74.89
46506;BME280;32220;49.808;9.968;2023-02-28T03:41:01;99864.25;;;-1.89;74.64
46506;BME280;32220;49.808;9.968;2023-02-28T03:43:37;99856.44;;;-1.92;74.25
46506;BME280;32220;49.808;9.968;2023-02-28T03:46:10;99839.97;;;-2.00;74.68
46506;BME280;32220;49.808;9.968;2023-02-28T03:48:44;99860.75;;;-1.98;74.79
46506;BME280;32220;49.808;9.968;2023-02-28T03:51:16;99863.38;;;-1.91;75.20
46506;BME280;32220;49.808;9.968;2023-02-28T03:53:50;99860.78;;;-1.89;74.73
46506;BME280;32220;49.808;9.968;2023-02-28T03:56:22;99861.59;;;-1.95;75.50
46506;BME280;32220;49.808;9.968;2023-02-28T03:58:55;99863.38;;;-1.91;75.49
46506;BME280;32220;49.808;9.968;2023-02-28T04:01:28;99864.22;;;-1.90;75.08
46506;BME280;32220;49.808;9.968;2023-02-28T04:03:58;99829.56;;;-2.12;75.50
46506;BME280;32220;49.808;9.968;2023-02-28T04:06:26;99863.38;;;-1.91;75.53
46506;BME280;32220;49.808;9.968;2023-02-28T04:08:55;99862.47;;;-1.96;76.46
46506;BME280;32220;49.808;9.968;2023-02-28T04:11:27;99871.16;;;-1.91;76.14
46506;BME280;32220;49.808;9.968;2023-02-28T04:13:57;99870.28;;;-1.90;76.17
46506;BME280;32220;49.808;9.968;2023-02-28T04:16:25;99872.91;;;-1.87;76.08
46506;BME280;32220;49.808;9.968;2023-02-28T04:18:53;99865.97;;;-1.89;75.81
46506;BME280;32220;49.808;9.968;2023-02-28T04:21:28;99869.47;;;-1.86;75.68
46506;BME280;32220;49.808;9.968;2023-02-28T04:23:57;99868.56;;;-1.88;75.56
46506;BME280;32220;49.808;9.968;2023-02-28T04:26:28;99842.56;;;-2.03;75.46
46506;BME280;32220;49.808;9.968;2023-02-28T04:28:57;99840.81;;;-2.05;75.69
46506;BME280;32220;49.808;9.968;2023-02-28T04:31:25;99866.00;;;-1.86;75.47
46506;BME280;32220;49.808;9.968;2023-02-28T04:33:53;99867.72;;;-1.87;75.81
46506;BME280;32220;49.808;9.968;2023-02-28T04:36:20;99866.84;;;-1.89;76.14
46506;BME280;32220;49.808;9.968;2023-02-28T04:38:49;99866.84;;;-1.89;75.91
46506;BME280;32220;49.808;9.968;2023-02-28T04:41:19;99868.56;;;-1.88;76.02
46506;BME280;32220;49.808;9.968;2023-02-28T04:43:49;99849.50;;;-1.99;75.88
46506;BME280;32220;49.808;9.968;2023-02-28T04:46:17;99872.06;;;-1.86;75.69
46506;BME280;32220;49.808;9.968;2023-02-28T04:48:44;99873.75;;;-1.85;75.38
46506;BME280;32220;49.808;9.968;2023-02-28T04:51:14;99865.97;;;-1.88;75.43
46506;BME280;32220;49.808;9.968;2023-02-28T04:53:42;99874.63;;;-1.89;75.34
46506;BME280;32220;49.808;9.968;2023-02-28T04:56:12;99870.28;;;-1.90;75.10
46506;BME280;32220;49.808;9.968;2023-02-28T04:58:42;99877.19;;;-1.93;74.94
46506;BME280;32220;49.808;9.968;2023-02-28T05:01:19;99872.84;;;-1.96;75.32
46506;BME280;32220;49.808;9.968;2023-02-28T05:03:47;99866.78;;;-1.98;75.23
46506;BME280;32220;49.808;9.968;2023-02-28T05:06:15;99879.78;;;-2.01;75.62
46506;BME280;32220;49.808;9.968;2023-02-28T05:08:44;99865.91;;;-2.03;75.81
46506;BME280;32220;49.808;9.968;2023-02-28T05:11:15;99867.66;;;-2.00;75.78
46506;BME280;32220;49.808;9.968;2023-02-28T05:13:45;99875.44;;;-2.02;75.32
46506;BME280;32220;49.808;9.968;2023-02-28T05:16:13;99857.22;;;-2.14;75.50
46506;BME280;32220;49.808;9.968;2023-02-28T05:18:41;99875.44;;;-2.03;75.74
46506;BME280;32220;49.808;9.968;2023-02-28T05:21:23;99880.59;;;-2.05;75.96
46506;BME280;32220;49.808;9.968;2023-02-28T05:23:52;99879.78;;;-2.01;75.49
46506;BME280;32220;49.808;9.968;2023-02-28T05:26:20;99879.75;;;-2.02;75.49
46506;BME280;32220;49.808;9.968;2023-02-28T05:28:49;99865.91;;;-2.10;75.55
46506;BME280;32220;49.808;9.968;2023-02-28T05:31:17;99886.69;;;-2.00;75.47
46506;BME280;32220;49.808;9.968;2023-02-28T05:33:45;99865.00;;;-2.12;75.59
46506;BME280;32220;49.808;9.968;2023-02-28T05:36:13;99889.25;;;-2.04;75.64
46506;BME280;32220;49.808;9.968;2023-02-28T05:38:43;99894.47;;;-2.03;75.73
46506;BME280;32220;49.808;9.968;2023-02-28T05:41:11;99886.66;;;-2.06;75.91
46506;BME280;32220;49.808;9.968;2023-02-28T05:43:39;99891.88;;;-2.01;75.52
46506;BME280;32220;49.808;9.968;2023-02-28T05:46:10;99899.66;;;-1.97;75.33
46506;BME280;32220;49.808;9.968;2023-02-28T05:48:39;99904.00;;;-1.99;75.27
46506;BME280;32220;49.808;9.968;2023-02-28T05:51:08;99908.34;;;-1.95;75.03
46506;BME280;32220;49.808;9.968;2023-02-28T05:53:36;99831.19;;;-2.35;74.73
46506;BME280;32220;49.808;9.968;2023-02-28T05:56:05;99904.88;;;-1.94;74.78
46506;BME280;32220;49.808;9.968;2023-02-28T05:58:32;99903.16;;;-1.93;74.71
46506;BME280;32220;49.808;9.968;2023-02-28T06:01:21;99902.31;;;-1.91;74.64
46506;BME280;32220;49.808;9.968;2023-02-28T06:03:50;99909.22;;;-1.90;74.47
46506;BME280;32220;49.808;9.968;2023-02-28T06:06:17;99915.28;;;-1.91;74.07
46506;BME280;32220;49.808;9.968;2023-02-28T06:08:45;99912.72;;;-1.86;73.89
46506;BME280;32220;49.808;9.968;2023-02-28T06:11:13;99924.84;;;-1.87;73.99
46506;BME280;32220;49.808;9.968;2023-02-28T06:13:41;99925.69;;;-1.85;73.84
46506;BME280;32220;49.808;9.968;2023-02-28T06:16:10;99924.81;;;-1.84;73.78
46506;BME280;32220;49.808;9.968;2023-02-28T06:18:40;99927.44;;;-1.87;73.67
46506;BME280;32220;49.808;9.968;2023-02-28T06:21:07;99922.22;;;-1.87;73.67
46506;BME280;32220;49.808;9.968;2023-02-28T06:23:35;99925.69;;;-1.82;73.46
46506;BME280;32220;49.808;9.968;2023-02-28T06:26:04;99936.09;;;-1.78;73.27
46506;BME280;32220;49.808;9.968;2023-02-28T06:28:32;99935.25;;;-1.71;73.26
46506;BME280;32220;49.808;9.968;2023-02-28T06:31:06;99934.41;;;-1.73;72.91
46506;BME280;32220;49.808;9.968;2023-02-28T06:33:34;99925.75;;;-1.75;72.41
46506;BME280;32220;49.808;9.968;2023-02-28T06:36:05;99944.81;;;-1.64;72.23
46506;BME280;32220;49.808;9.968;2023-02-28T06:38:34;99943.09;;;-1.64;72.04
46506;BME280;32220;49.808;9.968;2023-02-28T06:41:02;99952.63;;;-1.57;71.99
46506;BME280;32220;49.808;9.968;2023-02-28T06:43:32;99950.94;;;-1.52;71.57
46506;BME280;32220;49.808;9.968;2023-02-28T06:46:02;99954.38;;;-1.48;71.59
46506;BME280;32220;49.808;9.968;2023-02-28T06:48:30;99961.34;;;-1.44;71.26
46506;BME280;32220;49.808;9.968;2023-02-28T06:51:04;99950.09;;;-1.49;71.02
46506;BME280;32220;49.808;9.968;2023-02-28T06:53:33;99946.66;;;-1.39;70.86
46506;BME280;32220;49.808;9.968;2023-02-28T06:56:04;99970.94;;;-1.17;70.28
46506;BME280;32220;49.808;9.968;2023-02-28T06:58:33;99970.94;;;-1.10;70.01
46506;BME280;32220;49.808;9.968;2023-02-28T07:01:01;99977.91;;;-0.96;69.73
46506;BME280;32220;49.808;9.968;2023-02-28T07:03:29;99983.13;;;-0.83;69.14
46506;BME280;32220;49.808;9.968;2023-02-28T07:05:57;99981.41;;;-0.70;68.67
46506;BME280;32220;49.808;9.968;2023-02-28T07:08:27;99991.81;;;-0.58;68.19
46506;BME280;32220;49.808;9.968;2023-02-28T07:10:55;99983.16;;;-0.46;67.76
46506;BME280;32220;49.808;9.968;2023-02-28T07:13:23;99991.84;;;-0.27;67.19
46506;BME280;32220;49.808;9.968;2023-02-28T07:15:55;99993.53;;;-0.05;66.51
46506;BME280;32220;49.808;9.968;2023-02-28T07:18:23;99967.50;;;-0.02;65.68
46506;BME280;32220;49.808;9.968;2023-02-28T07:20:51;99974.34;;;0.25;64.72
46506;BME280;32220;49.808;9.968;2023-02-28T07:23:20;100000.25;;;0.67;64.07
46506;BME280;32220;49.808;9.968;2023-02-28T07:25:50;100000.06;;;1.08;62.48
46506;BME280;32220;49.808;9.968;2023-02-28T07:28:18;100013.75;;;1.38;60.61
46506;BME280;32220;49.808;9.968;2023-02-28T07:30:46;100016.91;;;1.84;60.64
46506;BME280;32220;49.808;9.968;2023-02-28T07:33:14;100008.25;;;1.77;59.38
46506;BME280;32220;49.808;9.968;2023-02-28T07:35:42;100029.88;;;1.92;58.97
46506;BME280;32220;49.808;9.968;2023-02-28T07:38:10;100021.19;;;1.90;59.14
46506;BME280;32220;49.808;9.968;2023-02-28T07:40:39;100017.78;;;1.83;58.73
46506;BME280;32220;49.808;9.968;2023-02-28T07:43:09;100024.75;;;1.84;59.11
46506;BME280;32220;49.808;9.968;2023-02-28T07:45:37;100020.31;;;1.89;58.81
46506;BME280;32220;49.808;9.968;2023-02-28T07:48:05;100025.13;;;2.33;58.58
46506;BME280;32220;49.808;9.968;2023-02-28T07:50:36;100027.94;;;2.90;56.76
46506;BME280;32220;49.808;9.968;2023-02-28T07:53:03;100030.50;;;2.96;55.59
46506;BME280;32220;49.808;9.968;2023-02-28T07:55:31;100037.56;;;2.86;56.22
46506;BME280;32220;49.808;9.968;2023-02-28T07:57:59;100038.56;;;2.78;56.50
46506;BME280;32220;49.808;9.968;2023-02-28T08:00:28;100040.31;;;2.76;56.62
46506;BME280;32220;49.808;9.968;2023-02-28T08:02:57;100023.03;;;2.63;56.63
46506;BME280;32220;49.808;9.968;2023-02-28T08:05:25;100029.13;;;2.63;56.35
46506;BME280;32220;49.808;9.968;2023-02-28T08:07:53;100032.59;;;2.65;56.50
46506;BME280;32220;49.808;9.968;2023-02-28T08:10:20;100030.41;;;3.02;56.26
46506;BME280;32220;49.808;9.968;2023-02-28T08:12:48;100037.34;;;3.05;55.77
46506;BME280;32220;49.808;9.968;2023-02-28T08:15:15;100042.75;;;3.54;55.16
46506;BME280;32220;49.808;9.968;2023-02-28T08:17:45;100048.72;;;4.16;53.79
46506;BME280;32220;49.808;9.968;2023-02-28T08:20:13;100054.81;;;5.47;51.24
46506;BME280;32220;49.808;9.968;2023-02-28T08:22:40;100076.50;;;6.63;47.94
46506;BME280;32220;49.808;9.968;2023-02-28T08:25:09;100095.13;;;7.48;45.74
46506;BME280;32220;49.808;9.968;2023-02-28T08:27:37;100102.94;;;9.78;42.15
46506;BME280;32220;49.808;9.968;2023-02-28T08:30:06;100128.50;;;11.26;38.28
46506;BME280;32220;49.808;9.968;2023-02-28T08:32:34;100121.00;;;12.46;37.18
46506;BME280;32220;49.808;9.968;2023-02-28T08:35:03;100123.75;;;13.47;35.21
46506;BME280;32220;49.808;9.968;2023-02-28T08:37:31;100116.03;;;13.25;34.25
46506;BME280;32220;49.808;9.968;2023-02-28T08:39:59;100118.75;;;12.73;34.43
46506;BME280;32220;49.808;9.968;2023-02-28T08:42:27;100126.06;;;12.34;35.37
46506;BME280;32220;49.808;9.968;2023-02-28T08:44:54;100104.72;;;12.52;35.71
46506;BME280;32220;49.808;9.968;2023-02-28T08:47:22;100132.81;;;14.68;31.87
46506;BME280;32220;49.808;9.968;2023-02-28T08:49:50;100140.03;;;16.37;28.79
46506;BME280;32220;49.808;9.968;2023-02-28T08:52:19;100144.31;;;17.18;28.02
46506;BME280;32220;49.808;9.968;2023-02-28T08:54:47;100113.47;;;16.87;27.82
46506;BME280;32220;49.808;9.968;2023-02-28T08:57:15;100137.16;;;17.19;27.54
46506;BME280;32220;49.808;9.968;2023-02-28T08:59:44;100136.53;;;17.66;26.88
46506;BME280;32220;49.808;9.968;2023-02-28T09:02:13;100151.94;;;17.63;26.17
46506;BME280;32220;49.808;9.968;2023-02-28T09:04:41;100123.56;;;18.09;25.16
46506;BME280;32220;49.808;9.968;2023-02-28T09:07:11;100150.28;;;18.82;24.30
46506;BME280;32220;49.808;9.968;2023-02-28T09:09:40;100144.50;;;19.90;24.50
46506;BME280;32220;49.808;9.968;2023-02-28T09:12:19;100145.69;;;19.97;23.24
46506;BME280;32220;49.808;9.968;2023-02-28T09:14:47;100135.56;;;19.79;24.59
46506;BME280;32220;49.808;9.968;2023-02-28T09:17:15;100135.50;;;18.77;23.69
46506;BME280;32220;49.808;9.968;2023-02-28T09:19:43;100121.47;;;17.89;24.56
46506;BME280;32220;49.808;9.968;2023-02-28T09:22:11;100138.53;;;17.63;24.72
46506;BME280;32220;49.808;9.968;2023-02-28T09:24:41;100061.06;;;17.72;25.31
46506;BME280;32220;49.808;9.968;2023-02-28T09:27:08;100112.06;;;18.55;24.85
46506;BME280;32220;49.808;9.968;2023-02-28T09:29:36;100132.97;;;18.86;23.77
46506;BME280;32220;49.808;9.968;2023-02-28T09:32:05;100125.13;;;17.88;23.96
46506;BME280;32220;49.808;9.968;2023-02-28T09:34:33;100101.34;;;17.71;25.07
46506;BME280;32220;49.808;9.968;2023-02-28T09:37:02;100112.72;;;17.74;24.08
46506;BME280;32220;49.808;9.968;2023-02-28T09:39:30;100118.28;;;17.46;24.70
46506;BME280;32220;49.808;9.968;2023-02-28T09:42:01;100122.94;;;16.12;25.99
46506;BME280;32220;49.808;9.968;2023-02-28T09:44:33;100121.81;;;14.89;26.80
46506;BME280;32220;49.808;9.968;2023-02-28T09:47:08;100110.63;;;14.07;27.94
46506;BME280;32220;49.808;9.968;2023-02-28T09:49:40;100101.47;;;13.32;29.27
46506;BME280;32220;49.808;9.968;2023-02-28T09:52:12;100105.91;;;12.47;30.12
46506;BME280;32220;49.808;9.968;2023-02-28T09:54:41;100088.38;;;12.08;31.00
46506;BME280;32220;49.808;9.968;2023-02-28T09:57:31;100071.84;;;12.02;31.67
46506;BME280;32220;49.808;9.968;2023-02-28T10:00:07;100101.31;;;12.85;31.05
46506;BME280;32220;49.808;9.968;2023-02-28T10:02:54;100098.19;;;14.83;29.40
46506;BME280;32220;49.808;9.968;2023-02-28T10:05:28;100102.88;;;16.99;26.95
46506;BME280;32220;49.808;9.968;2023-02-28T10:08:03;100119.72;;;18.61;25.16
46506;BME280;32220;49.808;9.968;2023-02-28T10:10:37;100161.47;;;19.68;22.72
46506;BME280;32220;49.808;9.968;2023-02-28T10:13:14;100158.19;;;19.87;21.81
46506;BME280;32220;49.808;9.968;2023-02-28T10:15:46;100150.28;;;20.51;22.09
46506;BME280;32220;49.808;9.968;2023-02-28T10:18:18;100143.13;;;21.65;22.26
46506;BME280;32220;49.808;9.968;2023-02-28T10:20:49;100158.88;;;22.40;19.85
46506;BME280;32220;49.808;9.968;2023-02-28T10:23:20;100166.25;;;21.58;20.03
46506;BME280;32220;49.808;9.968;2023-02-28T10:25:54;100155.81;;;20.27;21.00
46506;BME280;32220;49.808;9.968;2023-02-28T10:28:25;100149.38;;;20.62;21.92
46506;BME280;32220;49.808;9.968;2023-02-28T10:30:54;100108.81;;;20.74;21.61
46506;BME280;32220;49.808;9.968;2023-02-28T10:33:24;100129.75;;;20.71;20.68
46506;BME280;32220;49.808;9.968;2023-02-28T10:35:52;100144.22;;;19.93;21.35
46506;BME280;32220;49.808;9.968;2023-02-28T10:38:22;100139.19;;;19.33;22.24
46506;BME280;32220;49.808;9.968;2023-02-28T10:40:50;100122.84;;;19.47;21.84
46506;BME280;32220;49.808;9.968;2023-02-28T10:43:21;100136.81;;;19.52;22.35
46506;BME280;32220;49.808;9.968;2023-02-28T10:45:58;100116.09;;;18.49;22.74
46506;BME280;32220;49.808;9.968;2023-02-28T10:48:38;100112.44;;;18.26;22.86
46506;BME280;32220;49.808;9.968;2023-02-28T10:51:08;100106.47;;;18.82;23.16
46506;BME280;32220;49.808;9.968;2023-02-28T10:53:39;100124.53;;;20.04;22.65
46506;BME280;32220;49.808;9.968;2023-02-28T10:56:16;100120.63;;;19.41;22.40
46506;BME280;32220;49.808;9.968;2023-02-28T10:58:51;100121.44;;;18.62;23.05
46506;BME280;32220;49.808;9.968;2023-02-28T11:01:23;100115.41;;;17.11;24.23
46506;BME280;32220;49.808;9.968;2023-02-28T11:03:52;100106.81;;;15.59;24.94
46506;BME280;32220;49.808;9.968;2023-02-28T11:06:21;100098.41;;;14.34;27.08
46506;BME280;32220;49.808;9.968;2023-02-28T11:08:52;100077.88;;;14.05;27.54
46506;BME280;32220;49.808;9.968;2023-02-28T11:11:22;100084.50;;;13.97;27.72
46506;BME280;32220;49.808;9.968;2023-02-28T11:13:53;100096.19;;;13.79;28.06
46506;BME280;32220;49.808;9.968;2023-02-28T11:16:31;100084.44;;;13.19;28.57
46506;BME280;32220;49.808;9.968;2023-02-28T11:18:59;100083.28;;;12.90;29.45
46506;BME280;32220;49.808;9.968;2023-02-28T11:21:30;100060.19;;;12.57;29.45
46506;BME280;32220;49.808;9.968;2023-02-28T11:24:04;100071.75;;;12.56;29.93
46506;BME280;32220;49.808;9.968;2023-02-28T11:26:39;100068.47;;;12.34;30.26
46506;BME280;32220;49.808;9.968;2023-02-28T11:29:16;100061.88;;;12.24;30.72
46506;BME280;32220;49.808;9.968;2023-02-28T11:34:47;100071.34;;;12.64;30.07
46506;BME280;32220;49.808;9.968;2023-02-28T11:37:28;100053.44;;;12.85;30.29
46506;BME280;32220;49.808;9.968;2023-02-28T11:39:56;100071.56;;;12.77;30.12
46506;BME280;32220;49.808;9.968;2023-02-28T11:42:35;100069.41;;;12.85;30.16
46506;BME280;32220;49.808;9.968;2023-02-28T11:45:23;100064.72;;;13.39;31.19
46506;BME280;32220;49.808;9.968;2023-02-28T11:48:04;100066.13;;;13.61;29.77
46506;BME280;32220;49.808;9.968;2023-02-28T11:50:47;100055.47;;;13.30;28.73
46506;BME280;32220;49.808;9.968;2023-02-28T11:53:22;100068.47;;;14.29;28.39
46506;BME280;32220;49.808;9.968;2023-02-28T11:56:01;100060.97;;;13.43;28.71
46506;BME280;32220;49.808;9.968;2023-02-28T11:58:42;100056.44;;;14.22;28.25
46506;BME280;32220;49.808;9.968;2023-02-28T12:01:30;100070.59;;;13.92;27.61
46506;BME280;32220;49.808;9.968;2023-02-28T12:04:09;100074.03;;;13.47;28.70
46506;BME280;32220;49.808;9.968;2023-02-28T12:06:45;100061.09;;;12.91;29.35
46506;BME280;32220;49.808;9.968;2023-02-28T12:09:31;100055.16;;;14.45;28.39
46506;BME280;32220;49.808;9.968;2023-02-28T12:12:07;100081.81;;;17.81;24.83
46506;BME280;32220;49.808;9.968;2023-02-28T12:15:04;100096.72;;;20.69;22.27
46506;BME280;32220;49.808;9.968;2023-02-28T12:17:50;100093.88;;;20.50;21.47
46506;BME280;32220;49.808;9.968;2023-02-28T12:20:29;100105.72;;;19.26;22.50
46506;BME280;32220;49.808;9.968;2023-02-28T12:23:17;100088.13;;;19.11;22.98
46506;BME280;32220;49.808;9.968;2023-02-28T12:25:57;100094.63;;;20.29;22.73
46506;BME280;32220;49.808;9.968;2023-02-28T12:28:31;100102.31;;;20.77;21.01
46506;BME280;32220;49.808;9.968;2023-02-28T12:31:04;100100.00;;;20.40;21.73
46506;BME280;32220;49.808;9.968;2023-02-28T12:33:37;100069.47;;;20.19;21.91
46506;BME280;32220;49.808;9.968;2023-02-28T12:36:11;100103.16;;;21.40;20.34
46506;BME280;32220;49.808;9.968;2023-02-28T12:38:45;100100.88;;;19.87;21.24
46506;BME280;32220;49.808;9.968;2023-02-28T12:41:18;100076.06;;;20.26;21.65
46506;BME280;32220;49.808;9.968;2023-02-28T12:43:50;100080.75;;;21.79;21.01
46506;BME280;32220;49.808;9.968;2023-02-28T12:46:24;100095.81;;;22.89;19.56
46506;BME280;32220;49.808;9.968;2023-02-28T12:48:55;100094.53;;;22.55;19.24
46506;BME280;32220;49.808;9.968;2023-02-28T12:51:26;100102.09;;;23.56;19.14
46506;BME280;32220;49.808;9.968;2023-02-28T12:54:02;100108.38;;;23.37;18.56
46506;BME280;32220;49.808;9.968;2023-02-28T12:56:39;100092.25;;;22.31;20.14
46506;BME280;32220;49.808;9.968;2023-02-28T12:59:14;100093.53;;;23.04;19.49
46506;BME280;32220;49.808;9.968;2023-02-28T13:01:56;100075.03;;;24.11;19.05
46506;BME280;32220;49.808;9.968;2023-02-28T13:04:44;100101.09;;;24.57;18.19
46506;BME280;32220;49.808;9.968;2023-02-28T13:07:39;100097.91;;;22.28;18.91
46506;BME280;32220;49.808;9.968;2023-02-28T13:10:14;100080.16;;;21.15;20.85
46506;BME280;32220;49.808;9.968;2023-02-28T13:12:48;100074.94;;;21.84;20.43
46506;BME280;32220;49.808;9.968;2023-02-28T13:15:18;100068.81;;;22.61;20.42
46506;BME280;32220;49.808;9.968;2023-02-28T13:17:51;100088.31;;;23.40;18.80
46506;BME280;32220;49.808;9.968;2023-02-28T13:20:21;100089.94;;;23.13;19.13
46506;BME280;32220;49.808;9.968;2023-02-28T13:22:54;100085.19;;;21.90;19.74
46506;BME280;32220;49.808;9.968;2023-02-28T13:25:50;100073.94;;;22.54;19.19
46506;BME280;32220;49.808;9.968;2023-02-28T13:38:16;100072.75;;;23.61;18.63